sensor_id;sensor_type;location;lat;lon;timestamp;P1;durP1;ratioP1;P2;durP2;ratioP2
72394;SDS011;60384;48.152;11.614;2023-09-07T00:25:27;8.48;;;5.63;;
72394;SDS011;60384;48.152;11.614;2023-09-07T00:58:04;9.55;;;5.63;;
72394;SDS011;60384;48.152;11.614;2023-09-07T01:01:10;8.85;;;5.38;;
72394;SDS011;60384;48.152;11.614;2023-09-07T01:04:15;9.70;;;5.82;;
72394;SDS011;60384;48.152;11.614;2023-09-07T01:07:17;10.15;;;6.13;;
72394;SDS011;60384;48.152;11.614;2023-09-07T01:10:24;9.05;;;5.30;;
72394;SDS011;60384;48.152;11.614;2023-09-07T01:13:30;8.98;;;5.00;;
72394;SDS011;60384;48.152;11.614;2023-09-07T01:16:32;8.48;;;5.20;;
72394;SDS011;60384;48.152;11.614;2023-09-07T01:19:36;9.25;;;5.30;;
72394;SDS011;60384;48.152;11.614;2023-09-07T01:22:45;9.25;;;5.53;;
72394;SDS011;60384;48.152;11.614;2023-09-07T01:25:48;8.73;;;5.72;;
72394;SDS011;60384;48.152;11.614;2023-09-07T01:28:51;8.55;;;4.90;;
72394;SDS011;60384;48.152;11.614;2023-09-07T01:31:54;10.27;;;5.45;;
72394;SDS011;60384;48.152;11.614;2023-09-07T01:38:00;10.38;;;5.43;;
72394;SDS011;60384;48.152;11.614;2023-09-07T01:41:02;9.85;;;5.85;;
72394;SDS011;60384;48.152;11.614;2023-09-07T01:44:07;8.95;;;5.50;;
72394;SDS011;60384;48.152;11.614;2023-09-07T01:47:12;9.80;;;5.57;;
72394;SDS011;60384;48.152;11.614;2023-09-07T01:50:17;9.68;;;5.75;;
72394;SDS011;60384;48.152;11.614;2023-09-07T01:53:20;8.95;;;5.90;;
72394;SDS011;60384;48.152;11.614;2023-09-07T01:56:25;11.80;;;5.88;;
72394;SDS011;60384;48.152;11.614;2023-09-07T02:02:28;9.25;;;5.25;;
72394;SDS011;60384;48.152;11.614;2023-09-07T02:05:30;9.25;;;5.50;;
72394;SDS011;60384;48.152;11.614;2023-09-07T02:08:36;8.77;;;5.25;;
72394;SDS011;60384;48.152;11.614;2023-09-07T02:11:41;8.77;;;5.22;;
72394;SDS011;60384;48.152;11.614;2023-09-07T02:14:45;8.55;;;5.13;;
72394;SDS011;60384;48.152;11.614;2023-09-07T02:17:47;11.93;;;5.82;;
72394;SDS011;60384;48.152;11.614;2023-09-07T02:20:54;10.38;;;5.90;;
72394;SDS011;60384;48.152;11.614;2023-09-07T02:24:03;9.30;;;5.70;;
72394;SDS011;60384;48.152;11.614;2023-09-07T02:27:06;10.27;;;5.88;;
72394;SDS011;60384;48.152;11.614;2023-09-07T02:30:08;9.80;;;6.53;;
72394;SDS011;60384;48.152;11.614;2023-09-07T02:33:12;9.27;;;5.82;;
72394;SDS011;60384;48.152;11.614;2023-09-07T02:39:18;11.43;;;6.57;;
72394;SDS011;60384;48.152;11.614;2023-09-07T02:42:23;11.82;;;6.32;;
72394;SDS011;60384;48.152;11.614;2023-09-07T02:45:31;10.52;;;6.13;;
72394;SDS011;60384;48.152;11.614;2023-09-07T02:48:37;11.50;;;6.35;;
72394;SDS011;60384;48.152;11.614;2023-09-07T02:51:39;10.63;;;6.15;;
72394;SDS011;60384;48.152;11.614;2023-09-07T02:54:43;11.27;;;6.25;;
72394;SDS011;60384;48.152;11.614;2023-09-07T02:57:45;11.77;;;6.40;;
72394;SDS011;60384;48.152;11.614;2023-09-07T03:03:53;10.35;;;5.95;;
72394;SDS011;60384;48.152;11.614;2023-09-07T03:09:58;12.45;;;6.00;;
72394;SDS011;60384;48.152;11.614;2023-09-07T03:13:06;10.13;;;6.10;;
72394;SDS011;60384;48.152;11.614;2023-09-07T03:16:09;11.40;;;6.13;;
72394;SDS011;60384;48.152;11.614;2023-09-07T03:19:12;10.10;;;6.32;;
72394;SDS011;60384;48.152;11.614;2023-09-07T03:22:14;9.88;;;5.85;;
72394;SDS011;60384;48.152;11.614;2023-09-07T03:25:17;11.10;;;6.35;;
72394;SDS011;60384;48.152;11.614;2023-09-07T03:28:22;12.70;;;6.40;;
72394;SDS011;60384;48.152;11.614;2023-09-07T03:31:28;12.07;;;6.07;;
72394;SDS011;60384;48.152;11.614;2023-09-07T03:34:30;11.32;;;6.60;;
72394;SDS011;60384;48.152;11.614;2023-09-07T03:37:32;10.90;;;6.30;;
72394;SDS011;60384;48.152;11.614;2023-09-07T03:40:35;11.70;;;6.18;;
72394;SDS011;60384;48.152;11.614;2023-09-07T03:43:37;10.55;;;6.35;;
72394;SDS011;60384;48.152;11.614;2023-09-07T03:46:40;10.88;;;6.25;;
72394;SDS011;60384;48.152;11.614;2023-09-07T03:49:46;10.70;;;5.75;;
72394;SDS011;60384;48.152;11.614;2023-09-07T03:55:53;9.75;;;5.80;;
72394;SDS011;60384;48.152;11.614;2023-09-07T03:58:58;10.82;;;6.18;;
72394;SDS011;60384;48.152;11.614;2023-09-07T04:05:02;10.82;;;6.35;;
72394;SDS011;60384;48.152;11.614;2023-09-07T04:08:07;11.07;;;6.40;;
72394;SDS011;60384;48.152;11.614;2023-09-07T04:14:14;10.32;;;6.28;;
72394;SDS011;60384;48.152;11.614;2023-09-07T04:17:19;10.50;;;6.57;;
72394;SDS011;60384;48.152;11.614;2023-09-07T04:20:24;11.27;;;7.20;;
72394;SDS011;60384;48.152;11.614;2023-09-07T04:23:30;10.27;;;5.97;;
72394;SDS011;60384;48.152;11.614;2023-09-07T04:26:37;12.02;;;6.97;;
72394;SDS011;60384;48.152;11.614;2023-09-07T04:29:43;11.38;;;6.28;;
72394;SDS011;60384;48.152;11.614;2023-09-07T04:32:47;11.63;;;6.80;;
72394;SDS011;60384;48.152;11.614;2023-09-07T04:35:52;10.70;;;6.82;;
72394;SDS011;60384;48.152;11.614;2023-09-07T04:38:56;12.88;;;6.90;;
72394;SDS011;60384;48.152;11.614;2023-09-07T04:42:00;12.50;;;6.93;;
72394;SDS011;60384;48.152;11.614;2023-09-07T04:45:05;13.05;;;7.32;;
72394;SDS011;60384;48.152;11.614;2023-09-07T04:48:09;14.45;;;7.97;;
72394;SDS011;60384;48.152;11.614;2023-09-07T04:51:22;12.10;;;6.70;;
72394;SDS011;60384;48.152;11.614;2023-09-07T04:54:27;12.50;;;6.63;;
72394;SDS011;60384;48.152;11.614;2023-09-07T04:57:33;11.65;;;6.38;;
72394;SDS011;60384;48.152;11.614;2023-09-07T05:00:41;13.27;;;7.05;;
72394;SDS011;60384;48.152;11.614;2023-09-07T05:03:49;12.65;;;6.60;;
72394;SDS011;60384;48.152;11.614;2023-09-07T05:06:52;10.50;;;6.60;;
72394;SDS011;60384;48.152;11.614;2023-09-07T05:09:55;11.52;;;6.72;;
72394;SDS011;60384;48.152;11.614;2023-09-07T05:13:00;12.10;;;6.97;;
72394;SDS011;60384;48.152;11.614;2023-09-07T05:16:02;11.05;;;6.57;;
72394;SDS011;60384;48.152;11.614;2023-09-07T05:19:06;14.50;;;7.63;;
72394;SDS011;60384;48.152;11.614;2023-09-07T05:22:08;11.80;;;6.30;;
72394;SDS011;60384;48.152;11.614;2023-09-07T05:25:13;13.13;;;6.93;;
72394;SDS011;60384;48.152;11.614;2023-09-07T05:28:17;11.45;;;6.78;;
72394;SDS011;60384;48.152;11.614;2023-09-07T05:31:19;13.55;;;7.60;;
72394;SDS011;60384;48.152;11.614;2023-09-07T05:34:21;13.93;;;7.53;;
72394;SDS011;60384;48.152;11.614;2023-09-07T05:37:23;11.95;;;7.18;;
72394;SDS011;60384;48.152;11.614;2023-09-07T05:43:28;14.27;;;7.60;;
72394;SDS011;60384;48.152;11.614;2023-09-07T05:46:31;12.55;;;7.10;;
72394;SDS011;60384;48.152;11.614;2023-09-07T05:49:33;13.00;;;7.82;;
72394;SDS011;60384;48.152;11.614;2023-09-07T05:52:35;13.68;;;8.05;;
72394;SDS011;60384;48.152;11.614;2023-09-07T05:55:37;12.38;;;7.90;;
72394;SDS011;60384;48.152;11.614;2023-09-07T06:01:43;13.15;;;8.05;;
72394;SDS011;60384;48.152;11.614;2023-09-07T06:07:46;13.20;;;7.63;;
72394;SDS011;60384;48.152;11.614;2023-09-07T06:10:50;16.60;;;7.63;;
72394;SDS011;60384;48.152;11.614;2023-09-07T06:13:53;12.57;;;7.53;;
72394;SDS011;60384;48.152;11.614;2023-09-07T06:16:55;15.45;;;7.88;;
72394;SDS011;60384;48.152;11.614;2023-09-07T06:22:59;12.82;;;7.47;;
72394;SDS011;60384;48.152;11.614;2023-09-07T06:26:02;15.60;;;8.30;;
72394;SDS011;60384;48.152;11.614;2023-09-07T06:29:06;15.65;;;8.82;;
72394;SDS011;60384;48.152;11.614;2023-09-07T06:32:08;13.75;;;8.05;;
72394;SDS011;60384;48.152;11.614;2023-09-07T06:35:10;13.38;;;8.18;;
72394;SDS011;60384;48.152;11.614;2023-09-07T06:38:12;15.45;;;8.40;;
72394;SDS011;60384;48.152;11.614;2023-09-07T06:41:14;11.98;;;8.15;;
72394;SDS011;60384;48.152;11.614;2023-09-07T06:44:18;14.27;;;9.10;;
72394;SDS011;60384;48.152;11.614;2023-09-07T06:47:20;12.45;;;7.97;;
72394;SDS011;60384;48.152;11.614;2023-09-07T06:50:22;13.30;;;7.30;;
72394;SDS011;60384;48.152;11.614;2023-09-07T06:53:24;11.70;;;7.65;;
72394;SDS011;60384;48.152;11.614;2023-09-07T06:56:26;13.57;;;8.45;;
72394;SDS011;60384;48.152;11.614;2023-09-07T06:59:31;15.68;;;8.63;;
72394;SDS011;60384;48.152;11.614;2023-09-07T07:02:33;13.73;;;8.35;;
72394;SDS011;60384;48.152;11.614;2023-09-07T07:05:35;15.13;;;8.60;;
72394;SDS011;60384;48.152;11.614;2023-09-07T07:08:37;14.88;;;8.98;;
72394;SDS011;60384;48.152;11.614;2023-09-07T07:11:39;12.23;;;7.65;;
72394;SDS011;60384;48.152;11.614;2023-09-07T07:14:45;13.68;;;8.75;;
72394;SDS011;60384;48.152;11.614;2023-09-07T07:17:46;15.60;;;8.48;;
72394;SDS011;60384;48.152;11.614;2023-09-07T07:23:51;15.38;;;8.02;;
72394;SDS011;60384;48.152;11.614;2023-09-07T07:29:56;15.50;;;8.43;;
72394;SDS011;60384;48.152;11.614;2023-09-07T07:32:58;13.52;;;8.75;;
72394;SDS011;60384;48.152;11.614;2023-09-07T07:36:01;13.95;;;8.63;;
72394;SDS011;60384;48.152;11.614;2023-09-07T07:39:03;13.50;;;8.68;;
72394;SDS011;60384;48.152;11.614;2023-09-07T07:42:07;13.75;;;7.82;;
72394;SDS011;60384;48.152;11.614;2023-09-07T07:45:11;12.55;;;8.32;;
72394;SDS011;60384;48.152;11.614;2023-09-07T07:48:14;12.35;;;8.20;;
72394;SDS011;60384;48.152;11.614;2023-09-07T07:51:18;15.20;;;8.77;;
72394;SDS011;60384;48.152;11.614;2023-09-07T07:54:23;12.50;;;7.50;;
72394;SDS011;60384;48.152;11.614;2023-09-07T07:57:26;12.80;;;7.78;;
72394;SDS011;60384;48.152;11.614;2023-09-07T08:03:33;15.60;;;7.93;;
72394;SDS011;60384;48.152;11.614;2023-09-07T08:06:36;12.05;;;8.45;;
72394;SDS011;60384;48.152;11.614;2023-09-07T08:12:39;13.10;;;8.25;;
72394;SDS011;60384;48.152;11.614;2023-09-07T08:18:46;12.02;;;7.72;;
72394;SDS011;60384;48.152;11.614;2023-09-07T08:21:50;12.43;;;7.90;;
72394;SDS011;60384;48.152;11.614;2023-09-07T08:24:51;15.05;;;8.20;;
72394;SDS011;60384;48.152;11.614;2023-09-07T08:27:54;12.48;;;7.82;;
72394;SDS011;60384;48.152;11.614;2023-09-07T08:31:00;13.43;;;7.93;;
72394;SDS011;60384;48.152;11.614;2023-09-07T08:34:05;11.90;;;7.28;;
72394;SDS011;60384;48.152;11.614;2023-09-07T08:37:09;12.57;;;7.32;;
72394;SDS011;60384;48.152;11.614;2023-09-07T08:40:11;11.30;;;7.30;;
72394;SDS011;60384;48.152;11.614;2023-09-07T08:43:14;11.93;;;7.38;;
72394;SDS011;60384;48.152;11.614;2023-09-07T08:46:18;12.40;;;7.70;;
72394;SDS011;60384;48.152;11.614;2023-09-07T08:49:21;14.13;;;8.23;;
72394;SDS011;60384;48.152;11.614;2023-09-07T08:52:24;12.07;;;7.20;;
72394;SDS011;60384;48.152;11.614;2023-09-07T08:55:26;11.30;;;7.10;;
72394;SDS011;60384;48.152;11.614;2023-09-07T08:58:28;11.25;;;7.15;;
72394;SDS011;60384;48.152;11.614;2023-09-07T09:01:33;11.95;;;7.50;;
72394;SDS011;60384;48.152;11.614;2023-09-07T09:04:35;11.20;;;7.03;;
72394;SDS011;60384;48.152;11.614;2023-09-07T09:07:37;12.13;;;7.47;;
72394;SDS011;60384;48.152;11.614;2023-09-07T09:10:39;10.73;;;6.90;;
72394;SDS011;60384;48.152;11.614;2023-09-07T09:13:42;11.02;;;7.10;;
72394;SDS011;60384;48.152;11.614;2023-09-07T09:16:49;11.55;;;6.88;;
72394;SDS011;60384;48.152;11.614;2023-09-07T09:19:51;11.90;;;6.55;;
72394;SDS011;60384;48.152;11.614;2023-09-07T09:22:53;10.80;;;6.57;;
72394;SDS011;60384;48.152;11.614;2023-09-07T09:25:56;10.15;;;7.05;;
72394;SDS011;60384;48.152;11.614;2023-09-07T09:28:59;12.00;;;6.63;;
72394;SDS011;60384;48.152;11.614;2023-09-07T09:32:04;12.05;;;6.68;;
72394;SDS011;60384;48.152;11.614;2023-09-07T09:35:07;10.07;;;6.13;;
72394;SDS011;60384;48.152;11.614;2023-09-07T09:38:09;12.52;;;6.80;;
72394;SDS011;60384;48.152;11.614;2023-09-07T09:41:14;10.43;;;6.30;;
72394;SDS011;60384;48.152;11.614;2023-09-07T09:44:17;10.07;;;6.50;;
72394;SDS011;60384;48.152;11.614;2023-09-07T09:47:26;13.30;;;6.78;;
72394;SDS011;60384;48.152;11.614;2023-09-07T09:50:28;10.32;;;6.13;;
72394;SDS011;60384;48.152;11.614;2023-09-07T09:53:31;12.70;;;6.70;;
72394;SDS011;60384;48.152;11.614;2023-09-07T09:56:34;11.25;;;6.63;;
72394;SDS011;60384;48.152;11.614;2023-09-07T09:59:36;9.77;;;6.20;;
72394;SDS011;60384;48.152;11.614;2023-09-07T10:02:39;11.85;;;6.95;;
72394;SDS011;60384;48.152;11.614;2023-09-07T10:05:43;9.20;;;5.90;;
72394;SDS011;60384;48.152;11.614;2023-09-07T10:08:55;10.68;;;6.35;;
72394;SDS011;60384;48.152;11.614;2023-09-07T10:12:00;10.63;;;6.50;;
72394;SDS011;60384;48.152;11.614;2023-09-07T10:15:04;10.18;;;6.80;;
72394;SDS011;60384;48.152;11.614;2023-09-07T10:18:10;10.38;;;6.10;;
72394;SDS011;60384;48.152;11.614;2023-09-07T10:21:13;8.85;;;6.03;;
72394;SDS011;60384;48.152;11.614;2023-09-07T10:27:26;10.65;;;6.18;;
72394;SDS011;60384;48.152;11.614;2023-09-07T10:30:38;10.68;;;6.38;;
72394;SDS011;60384;48.152;11.614;2023-09-07T10:33:41;9.77;;;5.30;;
72394;SDS011;60384;48.152;11.614;2023-09-07T10:36:43;9.68;;;6.07;;
72394;SDS011;60384;48.152;11.614;2023-09-07T10:39:46;9.57;;;5.72;;
72394;SDS011;60384;48.152;11.614;2023-09-07T10:42:48;9.23;;;6.00;;
72394;SDS011;60384;48.152;11.614;2023-09-07T10:45:50;9.88;;;6.78;;
72394;SDS011;60384;48.152;11.614;2023-09-07T10:52:02;10.50;;;6.28;;
72394;SDS011;60384;48.152;11.614;2023-09-07T10:55:08;10.80;;;5.97;;
72394;SDS011;60384;48.152;11.614;2023-09-07T10:58:11;10.02;;;6.07;;
72394;SDS011;60384;48.152;11.614;2023-09-07T11:01:13;10.52;;;6.35;;
72394;SDS011;60384;48.152;11.614;2023-09-07T11:07:20;8.68;;;5.88;;
72394;SDS011;60384;48.152;11.614;2023-09-07T11:10:22;9.40;;;6.60;;
72394;SDS011;60384;48.152;11.614;2023-09-07T11:13:24;9.77;;;5.93;;
72394;SDS011;60384;48.152;11.614;2023-09-07T11:16:28;10.93;;;6.50;;
72394;SDS011;60384;48.152;11.614;2023-09-07T11:19:33;9.48;;;6.00;;
72394;SDS011;60384;48.152;11.614;2023-09-07T11:22:35;10.23;;;6.10;;
72394;SDS011;60384;48.152;11.614;2023-09-07T11:25:38;10.57;;;5.95;;
72394;SDS011;60384;48.152;11.614;2023-09-07T11:28:44;10.43;;;6.40;;
72394;SDS011;60384;48.152;11.614;2023-09-07T11:31:47;10.00;;;6.28;;
72394;SDS011;60384;48.152;11.614;2023-09-07T11:34:50;9.20;;;5.95;;
72394;SDS011;60384;48.152;11.614;2023-09-07T11:37:54;8.70;;;5.65;;
72394;SDS011;60384;48.152;11.614;2023-09-07T11:40:56;9.90;;;6.20;;
72394;SDS011;60384;48.152;11.614;2023-09-07T11:43:58;9.27;;;6.32;;
72394;SDS011;60384;48.152;11.614;2023-09-07T11:47:00;9.05;;;5.72;;
72394;SDS011;60384;48.152;11.614;2023-09-07T11:50:03;9.65;;;5.85;;
72394;SDS011;60384;48.152;11.614;2023-09-07T11:53:07;10.45;;;5.97;;
72394;SDS011;60384;48.152;11.614;2023-09-07T11:56:09;8.25;;;5.38;;
72394;SDS011;60384;48.152;11.614;2023-09-07T11:59:11;9.30;;;5.30;;
72394;SDS011;60384;48.152;11.614;2023-09-07T12:02:13;9.18;;;4.82;;
72394;SDS011;60384;48.152;11.614;2023-09-07T12:05:16;8.38;;;4.95;;
72394;SDS011;60384;48.152;11.614;2023-09-07T12:08:19;7.82;;;5.38;;
72394;SDS011;60384;48.152;11.614;2023-09-07T12:11:21;8.77;;;5.18;;
72394;SDS011;60384;48.152;11.614;2023-09-07T12:14:23;9.35;;;5.45;;
72394;SDS011;60384;48.152;11.614;2023-09-07T12:17:25;10.10;;;5.65;;
72394;SDS011;60384;48.152;11.614;2023-09-07T12:20:28;7.57;;;5.20;;
72394;SDS011;60384;48.152;11.614;2023-09-07T12:23:30;7.00;;;4.68;;
72394;SDS011;60384;48.152;11.614;2023-09-07T12:26:32;7.28;;;5.25;;
72394;SDS011;60384;48.152;11.614;2023-09-07T12:29:34;9.05;;;4.90;;
72394;SDS011;60384;48.152;11.614;2023-09-07T12:32:36;8.95;;;5.00;;
72394;SDS011;60384;48.152;11.614;2023-09-07T12:35:39;9.40;;;5.35;;
72394;SDS011;60384;48.152;11.614;2023-09-07T12:38:41;8.35;;;5.60;;
72394;SDS011;60384;48.152;11.614;2023-09-07T12:41:43;8.25;;;5.18;;
72394;SDS011;60384;48.152;11.614;2023-09-07T12:44:45;7.70;;;5.18;;
72394;SDS011;60384;48.152;11.614;2023-09-07T12:47:47;7.53;;;5.20;;
72394;SDS011;60384;48.152;11.614;2023-09-07T12:50:51;7.80;;;5.03;;
72394;SDS011;60384;48.152;11.614;2023-09-07T12:53:52;8.80;;;5.50;;
72394;SDS011;60384;48.152;11.614;2023-09-07T12:56:54;9.32;;;4.85;;
72394;SDS011;60384;48.152;11.614;2023-09-07T12:59:56;7.90;;;4.88;;
72394;SDS011;60384;48.152;11.614;2023-09-07T13:02:59;7.25;;;4.85;;
72394;SDS011;60384;48.152;11.614;2023-09-07T13:06:02;8.35;;;5.47;;
72394;SDS011;60384;48.152;11.614;2023-09-07T13:09:04;7.68;;;4.82;;
72394;SDS011;60384;48.152;11.614;2023-09-07T13:12:06;7.03;;;4.80;;
72394;SDS011;60384;48.152;11.614;2023-09-07T13:15:08;7.90;;;4.32;;
72394;SDS011;60384;48.152;11.614;2023-09-07T13:18:11;6.85;;;4.57;;
72394;SDS011;60384;48.152;11.614;2023-09-07T13:21:14;8.43;;;4.45;;
72394;SDS011;60384;48.152;11.614;2023-09-07T13:24:16;8.15;;;4.47;;
72394;SDS011;60384;48.152;11.614;2023-09-07T13:27:18;7.10;;;4.05;;
72394;SDS011;60384;48.152;11.614;2023-09-07T13:30:20;8.23;;;4.40;;
72394;SDS011;60384;48.152;11.614;2023-09-07T13:33:22;7.93;;;4.15;;
72394;SDS011;60384;48.152;11.614;2023-09-07T13:36:27;6.90;;;4.50;;
72394;SDS011;60384;48.152;11.614;2023-09-07T13:39:29;7.57;;;4.10;;
72394;SDS011;60384;48.152;11.614;2023-09-07T13:42:31;8.20;;;4.60;;
72394;SDS011;60384;48.152;11.614;2023-09-07T13:45:33;7.88;;;4.13;;
72394;SDS011;60384;48.152;11.614;2023-09-07T13:48:35;7.78;;;4.50;;
72394;SDS011;60384;48.152;11.614;2023-09-07T13:51:39;8.32;;;4.75;;
72394;SDS011;60384;48.152;11.614;2023-09-07T13:54:41;7.05;;;4.07;;
72394;SDS011;60384;48.152;11.614;2023-09-07T13:57:43;8.32;;;4.53;;
72394;SDS011;60384;48.152;11.614;2023-09-07T14:00:45;6.90;;;4.55;;
72394;SDS011;60384;48.152;11.614;2023-09-07T14:03:47;7.63;;;4.30;;
72394;SDS011;60384;48.152;11.614;2023-09-07T14:06:50;8.45;;;4.70;;
72394;SDS011;60384;48.152;11.614;2023-09-07T14:09:53;8.25;;;4.20;;
72394;SDS011;60384;48.152;11.614;2023-09-07T14:12:56;7.20;;;4.05;;
72394;SDS011;60384;48.152;11.614;2023-09-07T14:15:57;8.10;;;4.20;;
72394;SDS011;60384;48.152;11.614;2023-09-07T14:18:59;6.72;;;4.50;;
72394;SDS011;60384;48.152;11.614;2023-09-07T14:22:02;6.72;;;4.28;;
72394;SDS011;60384;48.152;11.614;2023-09-07T14:25:05;8.27;;;4.57;;
72394;SDS011;60384;48.152;11.614;2023-09-07T14:28:07;7.82;;;4.30;;
72394;SDS011;60384;48.152;11.614;2023-09-07T14:31:09;7.55;;;4.20;;
72394;SDS011;60384;48.152;11.614;2023-09-07T14:34:12;8.30;;;4.60;;
72394;SDS011;60384;48.152;11.614;2023-09-07T14:37:15;7.63;;;4.30;;
72394;SDS011;60384;48.152;11.614;2023-09-07T14:40:17;6.93;;;4.20;;
72394;SDS011;60384;48.152;11.614;2023-09-07T14:43:19;8.43;;;4.53;;
72394;SDS011;60384;48.152;11.614;2023-09-07T14:46:22;6.95;;;4.20;;
72394;SDS011;60384;48.152;11.614;2023-09-07T14:49:25;6.85;;;4.03;;
72394;SDS011;60384;48.152;11.614;2023-09-07T14:52:28;7.20;;;4.10;;
72394;SDS011;60384;48.152;11.614;2023-09-07T14:55:30;7.53;;;4.07;;
72394;SDS011;60384;48.152;11.614;2023-09-07T14:58:32;7.20;;;4.20;;
72394;SDS011;60384;48.152;11.614;2023-09-07T15:01:34;7.18;;;4.13;;
72394;SDS011;60384;48.152;11.614;2023-09-07T15:04:36;7.55;;;3.67;;
72394;SDS011;60384;48.152;11.614;2023-09-07T15:07:39;7.30;;;3.80;;
72394;SDS011;60384;48.152;11.614;2023-09-07T15:10:41;7.47;;;4.13;;
72394;SDS011;60384;48.152;11.614;2023-09-07T15:13:43;6.85;;;3.95;;
72394;SDS011;60384;48.152;11.614;2023-09-07T15:16:45;9.13;;;4.22;;
72394;SDS011;60384;48.152;11.614;2023-09-07T15:19:47;7.90;;;3.90;;
72394;SDS011;60384;48.152;11.614;2023-09-07T15:22:51;7.38;;;3.92;;
72394;SDS011;60384;48.152;11.614;2023-09-07T15:25:53;8.52;;;4.03;;
72394;SDS011;60384;48.152;11.614;2023-09-07T15:28:54;7.28;;;3.78;;
72394;SDS011;60384;48.152;11.614;2023-09-07T15:31:56;7.22;;;4.30;;
72394;SDS011;60384;48.152;11.614;2023-09-07T15:34:58;6.82;;;4.07;;
72394;SDS011;60384;48.152;11.614;2023-09-07T15:38:01;7.55;;;3.92;;
72394;SDS011;60384;48.152;11.614;2023-09-07T15:41:03;7.50;;;3.83;;
72394;SDS011;60384;48.152;11.614;2023-09-07T15:44:05;8.02;;;3.90;;
72394;SDS011;60384;48.152;11.614;2023-09-07T15:47:07;6.53;;;3.83;;
72394;SDS011;60384;48.152;11.614;2023-09-07T15:50:09;7.85;;;4.38;;
72394;SDS011;60384;48.152;11.614;2023-09-07T15:53:13;7.82;;;4.00;;
72394;SDS011;60384;48.152;11.614;2023-09-07T15:56:15;8.10;;;4.00;;
72394;SDS011;60384;48.152;11.614;2023-09-07T15:59:17;7.82;;;3.97;;
72394;SDS011;60384;48.152;11.614;2023-09-07T16:02:19;7.80;;;3.90;;
72394;SDS011;60384;48.152;11.614;2023-09-07T16:05:21;7.68;;;4.05;;
72394;SDS011;60384;48.152;11.614;2023-09-07T16:08:27;7.70;;;3.95;;
72394;SDS011;60384;48.152;11.614;2023-09-07T16:11:29;7.70;;;3.92;;
72394;SDS011;60384;48.152;11.614;2023-09-07T16:14:31;7.70;;;4.10;;
72394;SDS011;60384;48.152;11.614;2023-09-07T16:17:33;7.40;;;3.75;;
72394;SDS011;60384;48.152;11.614;2023-09-07T16:20:35;8.27;;;3.90;;
72394;SDS011;60384;48.152;11.614;2023-09-07T16:23:38;6.38;;;3.42;;
72394;SDS011;60384;48.152;11.614;2023-09-07T16:26:40;6.75;;;3.88;;
72394;SDS011;60384;48.152;11.614;2023-09-07T16:29:42;10.57;;;3.90;;
72394;SDS011;60384;48.152;11.614;2023-09-07T16:32:44;8.55;;;4.07;;
72394;SDS011;60384;48.152;11.614;2023-09-07T16:35:46;8.27;;;4.05;;
72394;SDS011;60384;48.152;11.614;2023-09-07T16:38:50;7.07;;;3.72;;
72394;SDS011;60384;48.152;11.614;2023-09-07T16:41:51;7.80;;;3.83;;
72394;SDS011;60384;48.152;11.614;2023-09-07T16:44:54;6.90;;;4.00;;
72394;SDS011;60384;48.152;11.614;2023-09-07T16:47:55;8.18;;;3.70;;
72394;SDS011;60384;48.152;11.614;2023-09-07T16:50:58;7.88;;;3.90;;
72394;SDS011;60384;48.152;11.614;2023-09-07T16:54:01;8.00;;;4.10;;
72394;SDS011;60384;48.152;11.614;2023-09-07T16:57:03;9.10;;;3.97;;
72394;SDS011;60384;48.152;11.614;2023-09-07T17:00:06;8.60;;;4.18;;
72394;SDS011;60384;48.152;11.614;2023-09-07T17:03:08;8.85;;;3.70;;
72394;SDS011;60384;48.152;11.614;2023-09-07T17:06:10;7.00;;;3.80;;
72394;SDS011;60384;48.152;11.614;2023-09-07T17:09:13;7.45;;;4.28;;
72394;SDS011;60384;48.152;11.614;2023-09-07T17:12:16;8.50;;;4.10;;
72394;SDS011;60384;48.152;11.614;2023-09-07T17:15:18;7.50;;;3.85;;
72394;SDS011;60384;48.152;11.614;2023-09-07T17:18:21;7.13;;;4.07;;
72394;SDS011;60384;48.152;11.614;2023-09-07T17:21:23;6.70;;;4.18;;
72394;SDS011;60384;48.152;11.614;2023-09-07T17:24:26;6.75;;;3.40;;
72394;SDS011;60384;48.152;11.614;2023-09-07T17:27:28;8.13;;;4.22;;
72394;SDS011;60384;48.152;11.614;2023-09-07T17:30:33;7.20;;;3.90;;
72394;SDS011;60384;48.152;11.614;2023-09-07T17:33:36;7.07;;;4.25;;
72394;SDS011;60384;48.152;11.614;2023-09-07T17:36:38;7.40;;;3.80;;
72394;SDS011;60384;48.152;11.614;2023-09-07T17:39:42;7.50;;;4.38;;
72394;SDS011;60384;48.152;11.614;2023-09-07T17:42:43;8.20;;;4.50;;
72394;SDS011;60384;48.152;11.614;2023-09-07T17:45:45;7.70;;;3.72;;
72394;SDS011;60384;48.152;11.614;2023-09-07T17:48:47;7.85;;;4.00;;
72394;SDS011;60384;48.152;11.614;2023-09-07T17:51:49;9.93;;;4.50;;
72394;SDS011;60384;48.152;11.614;2023-09-07T17:54:53;8.75;;;4.20;;
72394;SDS011;60384;48.152;11.614;2023-09-07T17:57:55;7.47;;;3.90;;
72394;SDS011;60384;48.152;11.614;2023-09-07T18:03:59;7.45;;;4.05;;
72394;SDS011;60384;48.152;11.614;2023-09-07T18:10:04;9.10;;;4.53;;
72394;SDS011;60384;48.152;11.614;2023-09-07T18:13:08;9.45;;;4.63;;
72394;SDS011;60384;48.152;11.614;2023-09-07T18:16:09;8.95;;;4.40;;
72394;SDS011;60384;48.152;11.614;2023-09-07T18:22:13;9.20;;;4.35;;
72394;SDS011;60384;48.152;11.614;2023-09-07T18:25:17;8.05;;;3.97;;
72394;SDS011;60384;48.152;11.614;2023-09-07T18:28:22;8.68;;;4.70;;
72394;SDS011;60384;48.152;11.614;2023-09-07T18:31:24;8.63;;;4.50;;
72394;SDS011;60384;48.152;11.614;2023-09-07T18:34:26;9.32;;;4.00;;
72394;SDS011;60384;48.152;11.614;2023-09-07T18:37:28;9.90;;;4.70;;
72394;SDS011;60384;48.152;11.614;2023-09-07T18:40:38;7.82;;;4.15;;
72394;SDS011;60384;48.152;11.614;2023-09-07T18:43:41;8.77;;;3.38;;
72394;SDS011;60384;48.152;11.614;2023-09-07T18:46:44;7.75;;;3.72;;
72394;SDS011;60384;48.152;11.614;2023-09-07T18:49:48;8.35;;;3.60;;
72394;SDS011;60384;48.152;11.614;2023-09-07T18:52:51;7.95;;;4.10;;
72394;SDS011;60384;48.152;11.614;2023-09-07T18:55:56;8.60;;;3.85;;
72394;SDS011;60384;48.152;11.614;2023-09-07T18:59:22;7.50;;;4.25;;
72394;SDS011;60384;48.152;11.614;2023-09-07T19:02:24;9.48;;;4.43;;
72394;SDS011;60384;48.152;11.614;2023-09-07T19:05:26;8.82;;;4.10;;
72394;SDS011;60384;48.152;11.614;2023-09-07T19:08:28;8.93;;;4.13;;
72394;SDS011;60384;48.152;11.614;2023-09-07T19:14:33;7.32;;;3.83;;
72394;SDS011;60384;48.152;11.614;2023-09-07T19:20:36;8.43;;;4.10;;
72394;SDS011;60384;48.152;11.614;2023-09-07T19:23:39;10.50;;;4.13;;
72394;SDS011;60384;48.152;11.614;2023-09-07T19:29:43;9.68;;;4.20;;
72394;SDS011;60384;48.152;11.614;2023-09-07T19:32:49;8.23;;;4.07;;
72394;SDS011;60384;48.152;11.614;2023-09-07T19:35:51;9.27;;;4.20;;
72394;SDS011;60384;48.152;11.614;2023-09-07T19:41:58;8.90;;;4.65;;
72394;SDS011;60384;48.152;11.614;2023-09-07T19:45:00;10.32;;;4.35;;
72394;SDS011;60384;48.152;11.614;2023-09-07T19:48:05;9.25;;;4.68;;
72394;SDS011;60384;48.152;11.614;2023-09-07T19:51:07;8.10;;;4.55;;
72394;SDS011;60384;48.152;11.614;2023-09-07T19:54:09;8.70;;;4.93;;
72394;SDS011;60384;48.152;11.614;2023-09-07T20:00:14;10.18;;;4.65;;
72394;SDS011;60384;48.152;11.614;2023-09-07T20:03:16;9.38;;;4.18;;
72394;SDS011;60384;48.152;11.614;2023-09-07T20:13:55;7.93;;;3.80;;
72394;SDS011;60384;48.152;11.614;2023-09-07T20:17:16;8.15;;;3.90;;
72394;SDS011;60384;48.152;11.614;2023-09-07T20:21:16;8.55;;;4.00;;
72394;SDS011;60384;48.152;11.614;2023-09-07T20:24:57;8.43;;;3.92;;
72394;SDS011;60384;48.152;11.614;2023-09-07T20:28:03;7.20;;;3.90;;